Virgo Phoenix — 3FMO8 — position and weather

sailwx.info

Track history (hours):
 
Tides and Currents Weather Stations Pressure Air Temp Water Temp Dewpoint Dewpoint Depression Visibility Wind Speed Wind Dir Waves Ship Positions

Virgo Phoenix

Last reported at 2017-Dec-15 12:42 UTC. Time now 2017-Dec-16 05:03 UTC.
Position N 31°03' E 122°07'.

Length 96 m; draft 5.1 m.

Type: Tanker. MMSI: 370795000.

Date/timePositionNaut miles runAvg speedWind from/ knotsBaromVisibWave heightAir tempDewpointWater temp
2017-Dec-15 12:42N 31°03' E 122°07'412.0
2017-Dec-15 12:20N 31°05' E 122°02'411.9
2017-Dec-15 12:00N 31°06' E 121°58'712.3
2017-Dec-15 11:26N 31°10' E 121°51'1912.7
2017-Dec-15 09:57N 31°23' E 121°35'511.6
2017-Dec-15 09:30N 31°26' E 121°30'510.7
2017-Dec-15 09:00N 31°30' E 121°25'611.2
2017-Dec-15 08:30N 31°33' E 121°20'611.8
2017-Dec-15 08:00N 31°37' E 121°16'612.1
2017-Dec-15 07:30N 31°41' E 121°10'1111.7
2017-Dec-15 06:35N 31°47' E 120°59'30 1.3
2017-Dec-14 07:57N 31°58' E 120°27'2 4.3
2017-Dec-14 07:30N 32°00' E 120°27'4011.2
2017-Dec-14 03:58N 31°42' E 121°09'714.8
2017-Dec-14 03:30N 31°38' E 121°15'714.4
2017-Dec-14 03:00N 31°33' E 121°21'611.6
2017-Dec-14 02:30N 31°30' E 121°26'31 9.9
2017-Dec-13 23:19N 31°09' E 121°54'612.0
2017-Dec-13 22:49N 31°06' E 121°60'310.9
2017-Dec-13 22:30N 31°05' E 122°03'  
2017-Dec-10 14:29N 34°30' E 138°52'612.7
2017-Dec-10 13:59N 34°33' E 138°59'612.9
2017-Dec-10 13:30N 34°38' E 139°04'814.0
2017-Dec-10 12:56N 34°44' E 139°10'712.8
2017-Dec-10 12:25N 34°49' E 139°15'1411.2
2017-Dec-10 11:11N 34°57' E 139°29'311.8
2017-Dec-10 10:54N 34°59' E 139°33'512.2
2017-Dec-10 10:30N 35°01' E 139°37'713.1
2017-Dec-10 10:01N 35°06' E 139°43'713.4
2017-Dec-10 09:30N 35°12' E 139°46'612.4
2017-Dec-10 09:00N 35°18' E 139°44'612.3
2017-Dec-10 08:31N 35°24' E 139°43'612.2
2017-Dec-10 08:00N 35°28' E 139°49'1012.2
2017-Dec-10 07:09N 35°32' E 140°01'211.5
2017-Dec-10 07:00N 35°32' E 140°03'1 0.1
2017-Dec-09 23:34N 35°32' E 140°03'0 0.3
2017-Dec-09 23:30N 35°32' E 140°03'2 3.3
2017-Dec-09 23:00N 35°33' E 140°02'0 0.1
2017-Dec-09 22:30N 35°33' E 140°02'0 0.1
2017-Dec-09 22:00N 35°33' E 140°02'2 4.3
2017-Dec-09 21:31N 35°32' E 139°59'713.8
2017-Dec-09 21:00N 35°28' E 139°52'713.6
2017-Dec-09 20:30N 35°24' E 139°46'612.0
2017-Dec-09 20:00N 35°18' E 139°45'612.5
2017-Dec-09 19:30N 35°12' E 139°46'713.3
2017-Dec-09 19:00N 35°05' E 139°43'713.5
2017-Dec-09 18:31N 35°01' E 139°37'815.1
2017-Dec-09 17:58N 34°56' E 139°29'715.5
2017-Dec-09 17:30N 34°52' E 139°22'816.0
2017-Dec-09 17:00N 34°46' E 139°15'816.2
2017-Dec-09 16:30N 34°39' E 139°10'816.4
2017-Dec-09 15:59N 34°33' E 139°04'715.0
2017-Dec-09 15:30N 34°29' E 138°56'915.2
2017-Dec-09 14:54N 34°29' E 138°45'715.1
2017-Dec-09 14:28N 34°30' E 138°37'714.9
2017-Dec-09 13:59N 34°30' E 138°28'914.6
2017-Dec-09 13:22N 34°30' E 138°17'1014.8
2017-Dec-09 12:39N 34°30' E 138°04'314.5
2017-Dec-09 12:26N 34°30' E 138°01'3714.2
2017-Dec-09 09:52N 34°32' E 137°16'2112.9
2017-Dec-09 08:12N 34°39' E 136°52'413.9
2017-Dec-09 07:57N 34°42' E 136°49'614.4
2017-Dec-09 07:30N 34°48' E 136°46'714.1
2017-Dec-09 07:00N 34°55' E 136°46'714.0
2017-Dec-09 06:30N 35°01' E 136°50'3 5.7
2017-Dec-09 06:00N 35°03' E 136°52'0 0.0
2017-Dec-09 05:30N 35°03' E 136°52'0 0.0
2017-Dec-09 05:00N 35°03' E 136°52'0 0.0
2017-Dec-09 04:30N 35°03' E 136°52'0 0.0
2017-Dec-09 04:00N 35°03' E 136°52'0 0.0
2017-Dec-09 03:30N 35°03' E 136°52'0 0.0
2017-Dec-09 03:00N 35°03' E 136°52'0 0.0
2017-Dec-09 02:30N 35°03' E 136°52'0 0.0
2017-Dec-09 02:00N 35°03' E 136°52'0 0.0
2017-Dec-09 01:30N 35°03' E 136°52'0 0.0
2017-Dec-09 01:00N 35°03' E 136°52'0 0.0
2017-Dec-09 00:30N 35°03' E 136°52'0 0.0
2017-Dec-09 00:00N 35°03' E 136°52'0 0.0
2017-Dec-08 23:31N 35°03' E 136°52'4 7.1
2017-Dec-08 23:00N 35°00' E 136°50'3 5.0
2017-Dec-08 22:28N 34°58' E 136°47'0 0.0
2017-Dec-08 21:58N 34°58' E 136°47'0 0.0
2017-Dec-08 21:28N 34°58' E 136°47'0 0.0
2017-Dec-08 20:58N 34°58' E 136°47'0 0.0
2017-Dec-08 20:28N 34°58' E 136°47'0 0.0
2017-Dec-08 19:58N 34°58' E 136°47'0 0.1
2017-Dec-08 19:28N 34°58' E 136°47'0 0.0
2017-Dec-08 18:58N 34°58' E 136°47'0 0.0
2017-Dec-08 18:28N 34°58' E 136°47'0 0.0
2017-Dec-08 17:58N 34°58' E 136°47'0 0.0
2017-Dec-08 17:28N 34°58' E 136°47'0 0.0
2017-Dec-08 16:55N 34°58' E 136°47'0 0.0
2017-Dec-08 16:28N 34°58' E 136°47'0 0.0
2017-Dec-08 15:58N 34°58' E 136°47'0 0.0
2017-Dec-08 15:28N 34°58' E 136°47'0 0.0
2017-Dec-08 14:58N 34°58' E 136°47'0 0.0
2017-Dec-08 14:28N 34°58' E 136°47'0 0.0
2017-Dec-08 13:58N 34°58' E 136°47'0 0.0
2017-Dec-08 13:28N 34°58' E 136°47'0 0.0
2017-Dec-08 12:58N 34°58' E 136°47'0 0.1
2017-Dec-08 12:28N 34°58' E 136°47'0 0.1
2017-Dec-08 11:58N 34°58' E 136°47'0 0.0
2017-Dec-08 11:28N 34°58' E 136°47'0 0.1
2017-Dec-08 10:58N 34°58' E 136°47'2 4.2
2017-Dec-08 10:30N 34°59' E 136°49'510.3
2017-Dec-08 10:00N 35°04' E 136°53'0 0.0
2017-Dec-08 09:30N 35°04' E 136°53'0 0.0
2017-Dec-08 08:57N 35°04' E 136°53'0 0.0
2017-Dec-08 08:30N 35°04' E 136°53'0 0.0
2017-Dec-08 08:00N 35°04' E 136°53'0 0.0
2017-Dec-08 07:27N 35°04' E 136°53'0 0.0
2017-Dec-08 07:00N 35°04' E 136°53'0 0.0
2017-Dec-08 06:30N 35°04' E 136°53'0 0.0
2017-Dec-08 05:57N 35°04' E 136°53'0 0.0
2017-Dec-08 05:30N 35°04' E 136°53'0 0.5
2017-Dec-08 05:00N 35°04' E 136°53'510.4
2017-Dec-08 04:31N 34°59' E 136°49'3 6.5
2017-Dec-08 03:59N 34°59' E 136°45'0 0.0
2017-Dec-08 03:29N 34°59' E 136°45'0 0.0
2017-Dec-08 02:59N 34°59' E 136°45'0 0.0
2017-Dec-08 02:26N 34°59' E 136°45'0 0.0
2017-Dec-08 01:59N 34°59' E 136°45'0 0.0
2017-Dec-08 01:29N 34°59' E 136°45'0 0.0
2017-Dec-08 00:59N 34°59' E 136°45'0 0.2
2017-Dec-08 00:30N 34°59' E 136°45'4 8.7
2017-Dec-08 00:01N 34°55' E 136°46'714.6
2017-Dec-07 23:31N 34°47' E 136°47'714.1
2017-Dec-07 23:00N 34°42' E 136°53'815.0
2017-Dec-07 22:30N 34°36' E 136°58'26111.6
2017-Dec-06 23:59N 33°21' E 131°57'712.1
2017-Dec-06 23:25N 33°27' E 131°53'512.7
2017-Dec-06 23:00N 33°32' E 131°50'612.7
2017-Dec-06 22:30N 33°37' E 131°47'713.1
2017-Dec-06 22:00N 33°43' E 131°44'612.5
2017-Dec-06 21:31N 33°46' E 131°37'713.8
2017-Dec-06 21:00N 33°48' E 131°29'  
Track history (hours):
 
Tides and Currents Weather Stations Pressure Air Temp Water Temp Dewpoint Dewpoint Depression Visibility Wind Speed Wind Dir Waves Ship Positions

Virgo Phoenix

Last reported at 2017-Dec-15 12:42 UTC. Time now 2017-Dec-16 05:03 UTC.
Position N 31°03' E 122°07'.

Length 96 m; draft 5.1 m.

Type: Tanker. MMSI: 370795000.

Date/timePositionNaut miles runAvg speedWind from/ knotsBaromVisibWave heightAir tempDewpointWater temp
2017-Dec-15 12:42N 31°03' E 122°07'412.0
2017-Dec-15 12:20N 31°05' E 122°02'411.9
2017-Dec-15 12:00N 31°06' E 121°58'712.3
2017-Dec-15 11:26N 31°10' E 121°51'1912.7
2017-Dec-15 09:57N 31°23' E 121°35'511.6
2017-Dec-15 09:30N 31°26' E 121°30'510.7
2017-Dec-15 09:00N 31°30' E 121°25'611.2
2017-Dec-15 08:30N 31°33' E 121°20'611.8
2017-Dec-15 08:00N 31°37' E 121°16'612.1
2017-Dec-15 07:30N 31°41' E 121°10'1111.7
2017-Dec-15 06:35N 31°47' E 120°59'30 1.3
2017-Dec-14 07:57N 31°58' E 120°27'2 4.3
2017-Dec-14 07:30N 32°00' E 120°27'4011.2
2017-Dec-14 03:58N 31°42' E 121°09'714.8
2017-Dec-14 03:30N 31°38' E 121°15'714.4
2017-Dec-14 03:00N 31°33' E 121°21'611.6
2017-Dec-14 02:30N 31°30' E 121°26'31 9.9
2017-Dec-13 23:19N 31°09' E 121°54'612.0
2017-Dec-13 22:49N 31°06' E 121°60'310.9
2017-Dec-13 22:30N 31°05' E 122°03'  
2017-Dec-10 14:29N 34°30' E 138°52'612.7
2017-Dec-10 13:59N 34°33' E 138°59'612.9
2017-Dec-10 13:30N 34°38' E 139°04'814.0
2017-Dec-10 12:56N 34°44' E 139°10'712.8
2017-Dec-10 12:25N 34°49' E 139°15'1411.2
2017-Dec-10 11:11N 34°57' E 139°29'311.8
2017-Dec-10 10:54N 34°59' E 139°33'512.2
2017-Dec-10 10:30N 35°01' E 139°37'713.1
2017-Dec-10 10:01N 35°06' E 139°43'713.4
2017-Dec-10 09:30N 35°12' E 139°46'612.4
2017-Dec-10 09:00N 35°18' E 139°44'612.3
2017-Dec-10 08:31N 35°24' E 139°43'612.2
2017-Dec-10 08:00N 35°28' E 139°49'1012.2
2017-Dec-10 07:09N 35°32' E 140°01'211.5
2017-Dec-10 07:00N 35°32' E 140°03'1 0.1
2017-Dec-09 23:34N 35°32' E 140°03'0 0.3
2017-Dec-09 23:30N 35°32' E 140°03'2 3.3
2017-Dec-09 23:00N 35°33' E 140°02'0 0.1
2017-Dec-09 22:30N 35°33' E 140°02'0 0.1
2017-Dec-09 22:00N 35°33' E 140°02'2 4.3
2017-Dec-09 21:31N 35°32' E 139°59'713.8
2017-Dec-09 21:00N 35°28' E 139°52'713.6
2017-Dec-09 20:30N 35°24' E 139°46'612.0
2017-Dec-09 20:00N 35°18' E 139°45'612.5
2017-Dec-09 19:30N 35°12' E 139°46'713.3
2017-Dec-09 19:00N 35°05' E 139°43'713.5
2017-Dec-09 18:31N 35°01' E 139°37'815.1
2017-Dec-09 17:58N 34°56' E 139°29'715.5
2017-Dec-09 17:30N 34°52' E 139°22'816.0
2017-Dec-09 17:00N 34°46' E 139°15'816.2
2017-Dec-09 16:30N 34°39' E 139°10'816.4
2017-Dec-09 15:59N 34°33' E 139°04'715.0
2017-Dec-09 15:30N 34°29' E 138°56'915.2
2017-Dec-09 14:54N 34°29' E 138°45'715.1
2017-Dec-09 14:28N 34°30' E 138°37'714.9
2017-Dec-09 13:59N 34°30' E 138°28'914.6
2017-Dec-09 13:22N 34°30' E 138°17'1014.8
2017-Dec-09 12:39N 34°30' E 138°04'314.5
2017-Dec-09 12:26N 34°30' E 138°01'3714.2
2017-Dec-09 09:52N 34°32' E 137°16'2112.9
2017-Dec-09 08:12N 34°39' E 136°52'413.9
2017-Dec-09 07:57N 34°42' E 136°49'614.4
2017-Dec-09 07:30N 34°48' E 136°46'714.1
2017-Dec-09 07:00N 34°55' E 136°46'714.0
2017-Dec-09 06:30N 35°01' E 136°50'3 5.7
2017-Dec-09 06:00N 35°03' E 136°52'0 0.0
2017-Dec-09 05:30N 35°03' E 136°52'0 0.0
2017-Dec-09 05:00N 35°03' E 136°52'0 0.0
2017-Dec-09 04:30N 35°03' E 136°52'0 0.0
2017-Dec-09 04:00N 35°03' E 136°52'0 0.0
2017-Dec-09 03:30N 35°03' E 136°52'0 0.0
2017-Dec-09 03:00N 35°03' E 136°52'0 0.0
2017-Dec-09 02:30N 35°03' E 136°52'0 0.0
2017-Dec-09 02:00N 35°03' E 136°52'0 0.0
2017-Dec-09 01:30N 35°03' E 136°52'0 0.0
2017-Dec-09 01:00N 35°03' E 136°52'0 0.0
2017-Dec-09 00:30N 35°03' E 136°52'0 0.0
2017-Dec-09 00:00N 35°03' E 136°52'0 0.0
2017-Dec-08 23:31N 35°03' E 136°52'4 7.1
2017-Dec-08 23:00N 35°00' E 136°50'3 5.0
2017-Dec-08 22:28N 34°58' E 136°47'0 0.0
2017-Dec-08 21:58N 34°58' E 136°47'0 0.0
2017-Dec-08 21:28N 34°58' E 136°47'0 0.0
2017-Dec-08 20:58N 34°58' E 136°47'0 0.0
2017-Dec-08 20:28N 34°58' E 136°47'0 0.0
2017-Dec-08 19:58N 34°58' E 136°47'0 0.1
2017-Dec-08 19:28N 34°58' E 136°47'0 0.0
2017-Dec-08 18:58N 34°58' E 136°47'0 0.0
2017-Dec-08 18:28N 34°58' E 136°47'0 0.0
2017-Dec-08 17:58N 34°58' E 136°47'0 0.0
2017-Dec-08 17:28N 34°58' E 136°47'0 0.0
2017-Dec-08 16:55N 34°58' E 136°47'0 0.0
2017-Dec-08 16:28N 34°58' E 136°47'0 0.0
2017-Dec-08 15:58N 34°58' E 136°47'0 0.0
2017-Dec-08 15:28N 34°58' E 136°47'0 0.0
2017-Dec-08 14:58N 34°58' E 136°47'0 0.0
2017-Dec-08 14:28N 34°58' E 136°47'0 0.0
2017-Dec-08 13:58N 34°58' E 136°47'0 0.0
2017-Dec-08 13:28N 34°58' E 136°47'0 0.0
2017-Dec-08 12:58N 34°58' E 136°47'0 0.1
2017-Dec-08 12:28N 34°58' E 136°47'0 0.1
2017-Dec-08 11:58N 34°58' E 136°47'0 0.0
2017-Dec-08 11:28N 34°58' E 136°47'0 0.1
2017-Dec-08 10:58N 34°58' E 136°47'2 4.2
2017-Dec-08 10:30N 34°59' E 136°49'510.3
2017-Dec-08 10:00N 35°04' E 136°53'0 0.0
2017-Dec-08 09:30N 35°04' E 136°53'0 0.0
2017-Dec-08 08:57N 35°04' E 136°53'0 0.0
2017-Dec-08 08:30N 35°04' E 136°53'0 0.0
2017-Dec-08 08:00N 35°04' E 136°53'0 0.0
2017-Dec-08 07:27N 35°04' E 136°53'0 0.0
2017-Dec-08 07:00N 35°04' E 136°53'0 0.0
2017-Dec-08 06:30N 35°04' E 136°53'0 0.0
2017-Dec-08 05:57N 35°04' E 136°53'0 0.0
2017-Dec-08 05:30N 35°04' E 136°53'0 0.5
2017-Dec-08 05:00N 35°04' E 136°53'510.4
2017-Dec-08 04:31N 34°59' E 136°49'3 6.5
2017-Dec-08 03:59N 34°59' E 136°45'0 0.0
2017-Dec-08 03:29N 34°59' E 136°45'0 0.0
2017-Dec-08 02:59N 34°59' E 136°45'0 0.0
2017-Dec-08 02:26N 34°59' E 136°45'0 0.0
2017-Dec-08 01:59N 34°59' E 136°45'0 0.0
2017-Dec-08 01:29N 34°59' E 136°45'0 0.0
2017-Dec-08 00:59N 34°59' E 136°45'0 0.2
2017-Dec-08 00:30N 34°59' E 136°45'4 8.7
2017-Dec-08 00:01N 34°55' E 136°46'714.6
2017-Dec-07 23:31N 34°47' E 136°47'714.1
2017-Dec-07 23:00N 34°42' E 136°53'815.0
2017-Dec-07 22:30N 34°36' E 136°58'26111.6
2017-Dec-06 23:59N 33°21' E 131°57'712.1
2017-Dec-06 23:25N 33°27' E 131°53'512.7
2017-Dec-06 23:00N 33°32' E 131°50'612.7
2017-Dec-06 22:30N 33°37' E 131°47'713.1
2017-Dec-06 22:00N 33°43' E 131°44'612.5
2017-Dec-06 21:31N 33°46' E 131°37'713.8
2017-Dec-06 21:00N 33°48' E 131°29'  

Dump ship's entire track history